Kang Cheng — VRZX3 — position and weather

sailwx.info

Track history (hours):
 
Tides and Currents Weather Stations Pressure Air Temp Water Temp Dewpoint Dewpoint Depression Visibility Wind Speed Wind Dir Waves Ship Positions

Kang Cheng

Last reported at 2018-Jan-19 08:00 UTC. Time now 2018-Jan-19 08:01 UTC.
Position N 09°15' W 079°55'.

Length 189 m; draft 11.8 m.

Type: Cargo ship. MMSI: 477975000.

Date/timePositionNaut miles runAvg speedWind from/ knotsBaromVisibWave heightAir tempDewpointWater temp
2018-Jan-19 08:00N 09°15' W 079°55'1 1.8
2018-Jan-19 07:30N 09°16' W 079°55'0 0.4
2018-Jan-19 07:01N 09°16' W 079°55'0 0.4
2018-Jan-19 06:31N 09°17' W 079°55'1 1.6
2018-Jan-19 06:00N 09°17' W 079°55'4 8.5
2018-Jan-19 05:30N 09°22' W 079°55'1 2.4
2018-Jan-19 05:00N 09°23' W 079°55'0 0.0
2018-Jan-19 03:09N 09°23' W 079°55'0 0.0
2018-Jan-19 03:00N 09°23' W 079°55'0 0.0
2018-Jan-19 02:30N 09°23' W 079°55'0 0.0
2018-Jan-19 02:00N 09°23' W 079°55'0 0.1
2018-Jan-19 01:30N 09°23' W 079°55'0 0.1
2018-Jan-19 01:00N 09°23' W 079°55'0 0.1
2018-Jan-19 00:30N 09°23' W 079°55'0 0.6
2018-Jan-19 00:00N 09°23' W 079°56'0 0.1
2018-Jan-18 23:30N 09°23' W 079°56'0 0.1
2018-Jan-18 23:00N 09°23' W 079°56'0 0.1
2018-Jan-18 22:30N 09°23' W 079°56'0 0.0
2018-Jan-18 22:00N 09°23' W 079°56'0 0.0
2018-Jan-18 21:30N 09°23' W 079°56'0 0.1
2018-Jan-18 21:00N 09°23' W 079°56'0 0.1
2018-Jan-18 20:30N 09°23' W 079°56'0 0.1
2018-Jan-18 20:00N 09°23' W 079°56'0 0.1
2018-Jan-18 19:30N 09°23' W 079°56'0 0.0
2018-Jan-18 19:00N 09°23' W 079°56'0 0.2
2018-Jan-18 18:30N 09°23' W 079°56'0 0.1
2018-Jan-18 18:00N 09°23' W 079°56'0 0.0
2018-Jan-18 17:30N 09°23' W 079°56'0 0.0
2018-Jan-18 17:00N 09°23' W 079°56'0 0.1
2018-Jan-18 16:30N 09°23' W 079°56'0 0.0
2018-Jan-18 16:00N 09°23' W 079°56'0 0.0
2018-Jan-18 15:30N 09°23' W 079°56'0 0.2
2018-Jan-18 15:00N 09°23' W 079°56'0 0.0
2018-Jan-18 14:30N 09°23' W 079°56'0 0.0
2018-Jan-18 14:00N 09°23' W 079°56'0 0.0
2018-Jan-18 13:30N 09°23' W 079°56'0 0.1
2018-Jan-18 13:00N 09°23' W 079°56'0 0.5
2018-Jan-18 12:30N 09°23' W 079°55'2 3.3
2018-Jan-18 12:00N 09°24' W 079°55'1 2.7
2018-Jan-18 11:30N 09°25' W 079°56'1 1.3
2018-Jan-18 10:59N 09°25' W 079°57'0 0.1
2018-Jan-18 10:29N 09°24' W 079°57'0 0.1
2018-Jan-18 09:59N 09°25' W 079°57'0 0.0
2018-Jan-18 09:29N 09°25' W 079°57'0 0.0
2018-Jan-18 08:58N 09°25' W 079°57'0 0.1
2018-Jan-18 08:28N 09°25' W 079°57'0 0.1
2018-Jan-18 07:58N 09°24' W 079°57'0 0.1
2018-Jan-18 07:29N 09°25' W 079°57'0 0.0
2018-Jan-18 06:59N 09°25' W 079°57'0 0.1
2018-Jan-18 06:29N 09°25' W 079°57'0 0.0
2018-Jan-18 05:59N 09°25' W 079°57'0 0.0
2018-Jan-18 05:29N 09°25' W 079°57'0 0.0
2018-Jan-18 04:58N 09°25' W 079°57'0 0.0
2018-Jan-18 04:28N 09°25' W 079°57'0 0.0
2018-Jan-18 03:58N 09°25' W 079°57'0 0.0
2018-Jan-18 03:29N 09°25' W 079°57'0 0.0
2018-Jan-18 02:58N 09°24' W 079°57'0 0.0
2018-Jan-18 02:28N 09°25' W 079°57'0 0.0
2018-Jan-18 01:58N 09°25' W 079°57'0 0.0
2018-Jan-18 01:28N 09°25' W 079°57'0 0.0
2018-Jan-18 00:59N 09°25' W 079°57'0 0.0
2018-Jan-17 23:58N 09°25' W 079°57'0 0.1
2018-Jan-17 23:55N 09°25' W 079°57'  
2018-Jan-12 06:49N 29°21' W 094°47'412.5
2018-Jan-12 06:30N 29°24' W 094°49'611.4
2018-Jan-12 06:00N 29°30' W 094°52'510.2
2018-Jan-12 05:30N 29°34' W 094°55'5 9.5
2018-Jan-12 05:00N 29°38' W 094°58'5 9.0
2018-Jan-12 04:31N 29°42' W 095°00'4 7.4
2018-Jan-12 04:01N 29°44' W 095°04'3 5.1
2018-Jan-12 03:30N 29°45' W 095°06'0 0.6
2018-Jan-12 02:57N 29°44' W 095°07'0 0.0
2018-Jan-12 02:30N 29°44' W 095°07'0 0.0
2018-Jan-12 02:00N 29°44' W 095°07'0 0.0
2018-Jan-12 01:30N 29°44' W 095°07'0 0.0
2018-Jan-12 01:00N 29°44' W 095°07'0 0.0
2018-Jan-12 00:30N 29°44' W 095°07'0 0.0
2018-Jan-11 23:57N 29°44' W 095°07'0 0.0
2018-Jan-11 23:30N 29°44' W 095°07'0 0.0
2018-Jan-11 23:00N 29°44' W 095°07'0 0.0
2018-Jan-11 22:30N 29°44' W 095°07'0 0.0
2018-Jan-11 22:00N 29°44' W 095°07'0 0.0
2018-Jan-11 21:30N 29°44' W 095°07'0 0.0
2018-Jan-11 21:00N 29°44' W 095°07'0 0.0
2018-Jan-11 20:30N 29°44' W 095°07'0 0.0
2018-Jan-11 20:00N 29°44' W 095°07'0 0.0
2018-Jan-11 19:30N 29°44' W 095°07'0 0.0
2018-Jan-11 18:57N 29°44' W 095°07'0 0.0
2018-Jan-11 11:03N 29°44' W 095°07'0 0.0
2018-Jan-11 10:57N 29°44' W 095°07'0 0.0
2018-Jan-11 10:30N 29°44' W 095°07'0 0.0
2018-Jan-11 09:48N 29°44' W 095°07'0 0.0
2018-Jan-11 09:18N 29°44' W 095°07'0 0.0
2018-Jan-11 09:00N 29°44' W 095°07'0 0.0
2018-Jan-11 07:57N 29°44' W 095°07'0 0.0
2018-Jan-11 07:24N 29°44' W 095°07'0 0.0
2018-Jan-11 06:54N 29°44' W 095°07'0 0.0
2018-Jan-11 06:18N 29°44' W 095°07'0 0.0
2018-Jan-11 05:33N 29°44' W 095°07'0 0.0
2018-Jan-11 05:09N 29°44' W 095°07'0 0.0
2018-Jan-11 05:00N 29°44' W 095°07'0 0.0
2018-Jan-11 04:21N 29°44' W 095°07'0 0.0
2018-Jan-11 03:48N 29°44' W 095°07'0 0.0
2018-Jan-11 03:30N 29°44' W 095°07'0 0.0
2018-Jan-11 03:00N 29°44' W 095°07'0 0.0
2018-Jan-11 02:30N 29°44' W 095°07'0 0.0
2018-Jan-11 01:51N 29°44' W 095°07'0 0.0
2018-Jan-11 01:06N 29°44' W 095°07'0 0.0
2018-Jan-11 00:00N 29°44' W 095°07'0 0.0
2018-Jan-10 23:30N 29°44' W 095°07'0 0.0
2018-Jan-10 23:00N 29°44' W 095°07'0 0.0
2018-Jan-10 22:30N 29°44' W 095°07'0 0.0
2018-Jan-10 22:00N 29°44' W 095°07'0 0.0
2018-Jan-10 21:30N 29°44' W 095°07'0 0.0
2018-Jan-10 20:57N 29°44' W 095°07'0 0.0
2018-Jan-10 20:30N 29°44' W 095°07'0 0.0
2018-Jan-10 20:00N 29°44' W 095°07'0 0.0
2018-Jan-10 19:30N 29°44' W 095°07'0 0.0
2018-Jan-10 19:00N 29°44' W 095°07'0 0.0
2018-Jan-10 18:30N 29°44' W 095°07'0 0.0
2018-Jan-10 18:00N 29°44' W 095°07'0 0.0
2018-Jan-10 17:30N 29°44' W 095°07'0 0.0
2018-Jan-10 17:00N 29°44' W 095°07'0 0.0
2018-Jan-10 16:30N 29°44' W 095°07'0 0.0
2018-Jan-10 16:00N 29°44' W 095°07'0 0.0
2018-Jan-10 15:30N 29°44' W 095°07'0 0.0
2018-Jan-10 14:57N 29°44' W 095°07'0 0.0
2018-Jan-10 14:30N 29°44' W 095°07'0 0.0
2018-Jan-10 14:00N 29°44' W 095°07'0 0.0
2018-Jan-10 13:30N 29°44' W 095°07'0 0.0
2018-Jan-10 13:00N 29°44' W 095°07'0 0.0
2018-Jan-10 12:30N 29°44' W 095°07'0 0.0
2018-Jan-10 12:00N 29°44' W 095°07'0 0.0
2018-Jan-10 11:30N 29°44' W 095°07'0 0.0
2018-Jan-10 11:00N 29°44' W 095°07'0 0.0
2018-Jan-10 10:30N 29°44' W 095°07'0 0.0
2018-Jan-10 10:00N 29°44' W 095°07'0 0.0
2018-Jan-10 09:30N 29°44' W 095°07'0 0.0
2018-Jan-10 09:00N 29°44' W 095°07'0 0.0
2018-Jan-10 08:30N 29°44' W 095°07'0 0.0
2018-Jan-10 08:00N 29°44' W 095°07'0 0.0
2018-Jan-10 07:30N 29°44' W 095°07'0 0.0
2018-Jan-10 07:00N 29°44' W 095°07'0 0.0
2018-Jan-10 06:30N 29°44' W 095°07'0 0.0
2018-Jan-10 06:00N 29°44' W 095°07'0 0.0
2018-Jan-10 05:30N 29°44' W 095°07'0 0.0
2018-Jan-10 05:00N 29°44' W 095°07'0 0.0
2018-Jan-10 03:54N 29°44' W 095°07'0 0.0
2018-Jan-10 03:27N 29°44' W 095°07'0 0.0
2018-Jan-10 03:00N 29°44' W 095°07'0 0.0
2018-Jan-10 02:30N 29°44' W 095°07'0 0.0
2018-Jan-10 01:54N 29°44' W 095°07'0 0.0
2018-Jan-10 01:30N 29°44' W 095°07'0 0.0
2018-Jan-10 00:54N 29°44' W 095°07'0 0.0
2018-Jan-10 00:30N 29°44' W 095°07'0 0.0
2018-Jan-09 23:57N 29°44' W 095°07'0 0.0
2018-Jan-09 23:30N 29°44' W 095°07'0 0.0
2018-Jan-09 23:00N 29°44' W 095°07'0 0.0
2018-Jan-09 22:30N 29°44' W 095°07'0 0.0
2018-Jan-09 20:09N 29°44' W 095°07'0 0.0
2018-Jan-09 20:00N 29°44' W 095°07'0 0.0
2018-Jan-09 19:30N 29°44' W 095°07'0 0.0
2018-Jan-09 19:00N 29°44' W 095°07'0 0.0
2018-Jan-09 18:30N 29°44' W 095°07'0 0.0
2018-Jan-09 18:00N 29°44' W 095°07'0 0.0
2018-Jan-09 17:30N 29°44' W 095°07'0 0.0
2018-Jan-09 17:00N 29°44' W 095°07'0 0.0
2018-Jan-09 16:30N 29°44' W 095°07'0 0.0
2018-Jan-09 16:00N 29°44' W 095°07'0 0.0
2018-Jan-09 15:30N 29°44' W 095°07'0 0.0
2018-Jan-09 15:00N 29°44' W 095°07'0 0.0
2018-Jan-09 14:30N 29°44' W 095°07'0 0.0
2018-Jan-09 14:00N 29°44' W 095°07'0 0.0
2018-Jan-09 13:30N 29°44' W 095°07'0 0.0
2018-Jan-09 13:00N 29°44' W 095°07'0 0.0
2018-Jan-09 12:30N 29°44' W 095°07'0 0.0
2018-Jan-09 11:21N 29°44' W 095°07'0 0.3
2018-Jan-09 10:59N 29°44' W 095°07'2 4.0
2018-Jan-09 10:30N 29°46' W 095°05'4 8.3
2018-Jan-09 10:00N 29°43' W 095°01'6 9.7
2018-Jan-09 09:21N 29°38' W 094°58'  
Track history (hours):
 
Tides and Currents Weather Stations Pressure Air Temp Water Temp Dewpoint Dewpoint Depression Visibility Wind Speed Wind Dir Waves Ship Positions

Kang Cheng

Last reported at 2018-Jan-19 08:00 UTC. Time now 2018-Jan-19 08:01 UTC.
Position N 09°15' W 079°55'.

Length 189 m; draft 11.8 m.

Type: Cargo ship. MMSI: 477975000.

Date/timePositionNaut miles runAvg speedWind from/ knotsBaromVisibWave heightAir tempDewpointWater temp
2018-Jan-19 08:00N 09°15' W 079°55'1 1.8
2018-Jan-19 07:30N 09°16' W 079°55'0 0.4
2018-Jan-19 07:01N 09°16' W 079°55'0 0.4
2018-Jan-19 06:31N 09°17' W 079°55'1 1.6
2018-Jan-19 06:00N 09°17' W 079°55'4 8.5
2018-Jan-19 05:30N 09°22' W 079°55'1 2.4
2018-Jan-19 05:00N 09°23' W 079°55'0 0.0
2018-Jan-19 03:09N 09°23' W 079°55'0 0.0
2018-Jan-19 03:00N 09°23' W 079°55'0 0.0
2018-Jan-19 02:30N 09°23' W 079°55'0 0.0
2018-Jan-19 02:00N 09°23' W 079°55'0 0.1
2018-Jan-19 01:30N 09°23' W 079°55'0 0.1
2018-Jan-19 01:00N 09°23' W 079°55'0 0.1
2018-Jan-19 00:30N 09°23' W 079°55'0 0.6
2018-Jan-19 00:00N 09°23' W 079°56'0 0.1
2018-Jan-18 23:30N 09°23' W 079°56'0 0.1
2018-Jan-18 23:00N 09°23' W 079°56'0 0.1
2018-Jan-18 22:30N 09°23' W 079°56'0 0.0
2018-Jan-18 22:00N 09°23' W 079°56'0 0.0
2018-Jan-18 21:30N 09°23' W 079°56'0 0.1
2018-Jan-18 21:00N 09°23' W 079°56'0 0.1
2018-Jan-18 20:30N 09°23' W 079°56'0 0.1
2018-Jan-18 20:00N 09°23' W 079°56'0 0.1
2018-Jan-18 19:30N 09°23' W 079°56'0 0.0
2018-Jan-18 19:00N 09°23' W 079°56'0 0.2
2018-Jan-18 18:30N 09°23' W 079°56'0 0.1
2018-Jan-18 18:00N 09°23' W 079°56'0 0.0
2018-Jan-18 17:30N 09°23' W 079°56'0 0.0
2018-Jan-18 17:00N 09°23' W 079°56'0 0.1
2018-Jan-18 16:30N 09°23' W 079°56'0 0.0
2018-Jan-18 16:00N 09°23' W 079°56'0 0.0
2018-Jan-18 15:30N 09°23' W 079°56'0 0.2
2018-Jan-18 15:00N 09°23' W 079°56'0 0.0
2018-Jan-18 14:30N 09°23' W 079°56'0 0.0
2018-Jan-18 14:00N 09°23' W 079°56'0 0.0
2018-Jan-18 13:30N 09°23' W 079°56'0 0.1
2018-Jan-18 13:00N 09°23' W 079°56'0 0.5
2018-Jan-18 12:30N 09°23' W 079°55'2 3.3
2018-Jan-18 12:00N 09°24' W 079°55'1 2.7
2018-Jan-18 11:30N 09°25' W 079°56'1 1.3
2018-Jan-18 10:59N 09°25' W 079°57'0 0.1
2018-Jan-18 10:29N 09°24' W 079°57'0 0.1
2018-Jan-18 09:59N 09°25' W 079°57'0 0.0
2018-Jan-18 09:29N 09°25' W 079°57'0 0.0
2018-Jan-18 08:58N 09°25' W 079°57'0 0.1
2018-Jan-18 08:28N 09°25' W 079°57'0 0.1
2018-Jan-18 07:58N 09°24' W 079°57'0 0.1
2018-Jan-18 07:29N 09°25' W 079°57'0 0.0
2018-Jan-18 06:59N 09°25' W 079°57'0 0.1
2018-Jan-18 06:29N 09°25' W 079°57'0 0.0
2018-Jan-18 05:59N 09°25' W 079°57'0 0.0
2018-Jan-18 05:29N 09°25' W 079°57'0 0.0
2018-Jan-18 04:58N 09°25' W 079°57'0 0.0
2018-Jan-18 04:28N 09°25' W 079°57'0 0.0
2018-Jan-18 03:58N 09°25' W 079°57'0 0.0
2018-Jan-18 03:29N 09°25' W 079°57'0 0.0
2018-Jan-18 02:58N 09°24' W 079°57'0 0.0
2018-Jan-18 02:28N 09°25' W 079°57'0 0.0
2018-Jan-18 01:58N 09°25' W 079°57'0 0.0
2018-Jan-18 01:28N 09°25' W 079°57'0 0.0
2018-Jan-18 00:59N 09°25' W 079°57'0 0.0
2018-Jan-17 23:58N 09°25' W 079°57'0 0.1
2018-Jan-17 23:55N 09°25' W 079°57'  
2018-Jan-12 06:49N 29°21' W 094°47'412.5
2018-Jan-12 06:30N 29°24' W 094°49'611.4
2018-Jan-12 06:00N 29°30' W 094°52'510.2
2018-Jan-12 05:30N 29°34' W 094°55'5 9.5
2018-Jan-12 05:00N 29°38' W 094°58'5 9.0
2018-Jan-12 04:31N 29°42' W 095°00'4 7.4
2018-Jan-12 04:01N 29°44' W 095°04'3 5.1
2018-Jan-12 03:30N 29°45' W 095°06'0 0.6
2018-Jan-12 02:57N 29°44' W 095°07'0 0.0
2018-Jan-12 02:30N 29°44' W 095°07'0 0.0
2018-Jan-12 02:00N 29°44' W 095°07'0 0.0
2018-Jan-12 01:30N 29°44' W 095°07'0 0.0
2018-Jan-12 01:00N 29°44' W 095°07'0 0.0
2018-Jan-12 00:30N 29°44' W 095°07'0 0.0
2018-Jan-11 23:57N 29°44' W 095°07'0 0.0
2018-Jan-11 23:30N 29°44' W 095°07'0 0.0
2018-Jan-11 23:00N 29°44' W 095°07'0 0.0
2018-Jan-11 22:30N 29°44' W 095°07'0 0.0
2018-Jan-11 22:00N 29°44' W 095°07'0 0.0
2018-Jan-11 21:30N 29°44' W 095°07'0 0.0
2018-Jan-11 21:00N 29°44' W 095°07'0 0.0
2018-Jan-11 20:30N 29°44' W 095°07'0 0.0
2018-Jan-11 20:00N 29°44' W 095°07'0 0.0
2018-Jan-11 19:30N 29°44' W 095°07'0 0.0
2018-Jan-11 18:57N 29°44' W 095°07'0 0.0
2018-Jan-11 11:03N 29°44' W 095°07'0 0.0
2018-Jan-11 10:57N 29°44' W 095°07'0 0.0
2018-Jan-11 10:30N 29°44' W 095°07'0 0.0
2018-Jan-11 09:48N 29°44' W 095°07'0 0.0
2018-Jan-11 09:18N 29°44' W 095°07'0 0.0
2018-Jan-11 09:00N 29°44' W 095°07'0 0.0
2018-Jan-11 07:57N 29°44' W 095°07'0 0.0
2018-Jan-11 07:24N 29°44' W 095°07'0 0.0
2018-Jan-11 06:54N 29°44' W 095°07'0 0.0
2018-Jan-11 06:18N 29°44' W 095°07'0 0.0
2018-Jan-11 05:33N 29°44' W 095°07'0 0.0
2018-Jan-11 05:09N 29°44' W 095°07'0 0.0
2018-Jan-11 05:00N 29°44' W 095°07'0 0.0
2018-Jan-11 04:21N 29°44' W 095°07'0 0.0
2018-Jan-11 03:48N 29°44' W 095°07'0 0.0
2018-Jan-11 03:30N 29°44' W 095°07'0 0.0
2018-Jan-11 03:00N 29°44' W 095°07'0 0.0
2018-Jan-11 02:30N 29°44' W 095°07'0 0.0
2018-Jan-11 01:51N 29°44' W 095°07'0 0.0
2018-Jan-11 01:06N 29°44' W 095°07'0 0.0
2018-Jan-11 00:00N 29°44' W 095°07'0 0.0
2018-Jan-10 23:30N 29°44' W 095°07'0 0.0
2018-Jan-10 23:00N 29°44' W 095°07'0 0.0
2018-Jan-10 22:30N 29°44' W 095°07'0 0.0
2018-Jan-10 22:00N 29°44' W 095°07'0 0.0
2018-Jan-10 21:30N 29°44' W 095°07'0 0.0
2018-Jan-10 20:57N 29°44' W 095°07'0 0.0
2018-Jan-10 20:30N 29°44' W 095°07'0 0.0
2018-Jan-10 20:00N 29°44' W 095°07'0 0.0
2018-Jan-10 19:30N 29°44' W 095°07'0 0.0
2018-Jan-10 19:00N 29°44' W 095°07'0 0.0
2018-Jan-10 18:30N 29°44' W 095°07'0 0.0
2018-Jan-10 18:00N 29°44' W 095°07'0 0.0
2018-Jan-10 17:30N 29°44' W 095°07'0 0.0
2018-Jan-10 17:00N 29°44' W 095°07'0 0.0
2018-Jan-10 16:30N 29°44' W 095°07'0 0.0
2018-Jan-10 16:00N 29°44' W 095°07'0 0.0
2018-Jan-10 15:30N 29°44' W 095°07'0 0.0
2018-Jan-10 14:57N 29°44' W 095°07'0 0.0
2018-Jan-10 14:30N 29°44' W 095°07'0 0.0
2018-Jan-10 14:00N 29°44' W 095°07'0 0.0
2018-Jan-10 13:30N 29°44' W 095°07'0 0.0
2018-Jan-10 13:00N 29°44' W 095°07'0 0.0
2018-Jan-10 12:30N 29°44' W 095°07'0 0.0
2018-Jan-10 12:00N 29°44' W 095°07'0 0.0
2018-Jan-10 11:30N 29°44' W 095°07'0 0.0
2018-Jan-10 11:00N 29°44' W 095°07'0 0.0
2018-Jan-10 10:30N 29°44' W 095°07'0 0.0
2018-Jan-10 10:00N 29°44' W 095°07'0 0.0
2018-Jan-10 09:30N 29°44' W 095°07'0 0.0
2018-Jan-10 09:00N 29°44' W 095°07'0 0.0
2018-Jan-10 08:30N 29°44' W 095°07'0 0.0
2018-Jan-10 08:00N 29°44' W 095°07'0 0.0
2018-Jan-10 07:30N 29°44' W 095°07'0 0.0
2018-Jan-10 07:00N 29°44' W 095°07'0 0.0
2018-Jan-10 06:30N 29°44' W 095°07'0 0.0
2018-Jan-10 06:00N 29°44' W 095°07'0 0.0
2018-Jan-10 05:30N 29°44' W 095°07'0 0.0
2018-Jan-10 05:00N 29°44' W 095°07'0 0.0
2018-Jan-10 03:54N 29°44' W 095°07'0 0.0
2018-Jan-10 03:27N 29°44' W 095°07'0 0.0
2018-Jan-10 03:00N 29°44' W 095°07'0 0.0
2018-Jan-10 02:30N 29°44' W 095°07'0 0.0
2018-Jan-10 01:54N 29°44' W 095°07'0 0.0
2018-Jan-10 01:30N 29°44' W 095°07'0 0.0
2018-Jan-10 00:54N 29°44' W 095°07'0 0.0
2018-Jan-10 00:30N 29°44' W 095°07'0 0.0
2018-Jan-09 23:57N 29°44' W 095°07'0 0.0
2018-Jan-09 23:30N 29°44' W 095°07'0 0.0
2018-Jan-09 23:00N 29°44' W 095°07'0 0.0
2018-Jan-09 22:30N 29°44' W 095°07'0 0.0
2018-Jan-09 20:09N 29°44' W 095°07'0 0.0
2018-Jan-09 20:00N 29°44' W 095°07'0 0.0
2018-Jan-09 19:30N 29°44' W 095°07'0 0.0
2018-Jan-09 19:00N 29°44' W 095°07'0 0.0
2018-Jan-09 18:30N 29°44' W 095°07'0 0.0
2018-Jan-09 18:00N 29°44' W 095°07'0 0.0
2018-Jan-09 17:30N 29°44' W 095°07'0 0.0
2018-Jan-09 17:00N 29°44' W 095°07'0 0.0
2018-Jan-09 16:30N 29°44' W 095°07'0 0.0
2018-Jan-09 16:00N 29°44' W 095°07'0 0.0
2018-Jan-09 15:30N 29°44' W 095°07'0 0.0
2018-Jan-09 15:00N 29°44' W 095°07'0 0.0
2018-Jan-09 14:30N 29°44' W 095°07'0 0.0
2018-Jan-09 14:00N 29°44' W 095°07'0 0.0
2018-Jan-09 13:30N 29°44' W 095°07'0 0.0
2018-Jan-09 13:00N 29°44' W 095°07'0 0.0
2018-Jan-09 12:30N 29°44' W 095°07'0 0.0
2018-Jan-09 11:21N 29°44' W 095°07'0 0.3
2018-Jan-09 10:59N 29°44' W 095°07'2 4.0
2018-Jan-09 10:30N 29°46' W 095°05'4 8.3
2018-Jan-09 10:00N 29°43' W 095°01'6 9.7
2018-Jan-09 09:21N 29°38' W 094°58'  

Dump ship's entire track history